sensor_id;sensor_type;location;lat;lon;timestamp;P1;durP1;ratioP1;P2;durP2;ratioP2
34471;SDS011;20710;49.976;19.836;2023-07-22T00:00:31;12.20;;;8.60;;
34471;SDS011;20710;49.976;19.836;2023-07-22T00:06:52;18.90;;;8.50;;
34471;SDS011;20710;49.976;19.836;2023-07-22T00:12:54;12.10;;;8.70;;
34471;SDS011;20710;49.976;19.836;2023-07-22T00:18:56;11.70;;;7.90;;
34471;SDS011;20710;49.976;19.836;2023-07-22T00:24:57;9.50;;;8.40;;
34471;SDS011;20710;49.976;19.836;2023-07-22T00:31:02;11.50;;;7.50;;
34471;SDS011;20710;49.976;19.836;2023-07-22T00:37:21;10.70;;;7.80;;
34471;SDS011;20710;49.976;19.836;2023-07-22T00:43:23;8.90;;;7.00;;
34471;SDS011;20710;49.976;19.836;2023-07-22T00:49:27;13.80;;;7.70;;
34471;SDS011;20710;49.976;19.836;2023-07-22T00:55:30;8.40;;;7.40;;
34471;SDS011;20710;49.976;19.836;2023-07-22T01:01:34;12.00;;;7.00;;
34471;SDS011;20710;49.976;19.836;2023-07-22T01:07:36;10.10;;;7.20;;
34471;SDS011;20710;49.976;19.836;2023-07-22T01:13:39;10.20;;;7.10;;
34471;SDS011;20710;49.976;19.836;2023-07-22T01:19:41;10.10;;;7.60;;
34471;SDS011;20710;49.976;19.836;2023-07-22T01:25:45;8.90;;;7.10;;
34471;SDS011;20710;49.976;19.836;2023-07-22T01:31:51;8.50;;;7.00;;
34471;SDS011;20710;49.976;19.836;2023-07-22T01:38:12;9.70;;;7.30;;
34471;SDS011;20710;49.976;19.836;2023-07-22T01:44:14;7.70;;;6.90;;
34471;SDS011;20710;49.976;19.836;2023-07-22T01:50:16;10.80;;;7.40;;
34471;SDS011;20710;49.976;19.836;2023-07-22T01:56:22;8.90;;;7.60;;
34471;SDS011;20710;49.976;19.836;2023-07-22T02:02:24;8.80;;;6.40;;
34471;SDS011;20710;49.976;19.836;2023-07-22T02:08:26;9.10;;;7.00;;
34471;SDS011;20710;49.976;19.836;2023-07-22T02:14:28;11.20;;;7.00;;
34471;SDS011;20710;49.976;19.836;2023-07-22T02:20:29;10.30;;;6.30;;
34471;SDS011;20710;49.976;19.836;2023-07-22T02:26:31;8.10;;;6.90;;
34471;SDS011;20710;49.976;19.836;2023-07-22T02:32:33;9.00;;;6.90;;
34471;SDS011;20710;49.976;19.836;2023-07-22T02:38:35;8.50;;;6.30;;
34471;SDS011;20710;49.976;19.836;2023-07-22T02:44:36;7.60;;;6.10;;
34471;SDS011;20710;49.976;19.836;2023-07-22T02:50:53;6.20;;;5.40;;
34471;SDS011;20710;49.976;19.836;2023-07-22T02:56:54;7.40;;;5.30;;
34471;SDS011;20710;49.976;19.836;2023-07-22T03:02:56;6.80;;;5.50;;
34471;SDS011;20710;49.976;19.836;2023-07-22T03:09:20;8.90;;;5.10;;
34471;SDS011;20710;49.976;19.836;2023-07-22T03:15:42;5.90;;;5.30;;
34471;SDS011;20710;49.976;19.836;2023-07-22T03:21:44;7.10;;;5.90;;
34471;SDS011;20710;49.976;19.836;2023-07-22T03:27:46;6.30;;;5.70;;
34471;SDS011;20710;49.976;19.836;2023-07-22T03:33:48;6.20;;;5.60;;
34471;SDS011;20710;49.976;19.836;2023-07-22T03:39:51;6.70;;;5.00;;
34471;SDS011;20710;49.976;19.836;2023-07-22T03:46:13;6.50;;;5.40;;
34471;SDS011;20710;49.976;19.836;2023-07-22T03:52:15;8.20;;;4.70;;
34471;SDS011;20710;49.976;19.836;2023-07-22T03:58:20;8.40;;;5.20;;
34471;SDS011;20710;49.976;19.836;2023-07-22T04:04:21;9.00;;;5.20;;
34471;SDS011;20710;49.976;19.836;2023-07-22T04:10:29;8.10;;;5.10;;
34471;SDS011;20710;49.976;19.836;2023-07-22T04:16:31;7.20;;;4.80;;
34471;SDS011;20710;49.976;19.836;2023-07-22T04:22:32;7.40;;;4.80;;
34471;SDS011;20710;49.976;19.836;2023-07-22T04:28:34;7.70;;;5.30;;
34471;SDS011;20710;49.976;19.836;2023-07-22T04:34:36;12.80;;;6.70;;
34471;SDS011;20710;49.976;19.836;2023-07-22T04:40:42;10.70;;;6.70;;
34471;SDS011;20710;49.976;19.836;2023-07-22T04:52:47;10.10;;;7.40;;
34471;SDS011;20710;49.976;19.836;2023-07-22T04:58:49;10.60;;;7.60;;
34471;SDS011;20710;49.976;19.836;2023-07-22T05:04:51;10.90;;;8.50;;
34471;SDS011;20710;49.976;19.836;2023-07-22T05:10:56;10.40;;;8.80;;
34471;SDS011;20710;49.976;19.836;2023-07-22T05:16:58;12.20;;;8.90;;
34471;SDS011;20710;49.976;19.836;2023-07-22T05:22:59;14.00;;;9.60;;
34471;SDS011;20710;49.976;19.836;2023-07-22T05:29:01;13.40;;;8.80;;
34471;SDS011;20710;49.976;19.836;2023-07-22T05:35:03;18.70;;;10.00;;
34471;SDS011;20710;49.976;19.836;2023-07-22T05:41:06;12.20;;;9.10;;
34471;SDS011;20710;49.976;19.836;2023-07-22T05:47:10;13.60;;;8.90;;
34471;SDS011;20710;49.976;19.836;2023-07-22T05:53:11;10.80;;;7.80;;
34471;SDS011;20710;49.976;19.836;2023-07-22T05:59:14;10.60;;;8.00;;
34471;SDS011;20710;49.976;19.836;2023-07-22T06:05:54;10.30;;;8.00;;
34471;SDS011;20710;49.976;19.836;2023-07-22T06:11:56;11.50;;;7.80;;
34471;SDS011;20710;49.976;19.836;2023-07-22T06:18:14;12.30;;;8.70;;
34471;SDS011;20710;49.976;19.836;2023-07-22T06:24:17;14.00;;;8.30;;
34471;SDS011;20710;49.976;19.836;2023-07-22T06:30:18;13.50;;;9.40;;
34471;SDS011;20710;49.976;19.836;2023-07-22T06:36:39;13.30;;;9.30;;
34471;SDS011;20710;49.976;19.836;2023-07-22T06:42:41;13.70;;;10.00;;
34471;SDS011;20710;49.976;19.836;2023-07-22T06:48:42;14.50;;;9.40;;
34471;SDS011;20710;49.976;19.836;2023-07-22T06:54:44;11.70;;;9.80;;
34471;SDS011;20710;49.976;19.836;2023-07-22T07:01:08;13.10;;;9.50;;
34471;SDS011;20710;49.976;19.836;2023-07-22T07:07:08;10.90;;;9.50;;
34471;SDS011;20710;49.976;19.836;2023-07-22T07:13:30;10.90;;;8.60;;
34471;SDS011;20710;49.976;19.836;2023-07-22T07:19:56;9.10;;;8.00;;
34471;SDS011;20710;49.976;19.836;2023-07-22T07:25:58;9.60;;;7.20;;
34471;SDS011;20710;49.976;19.836;2023-07-22T07:31:59;9.00;;;6.70;;
34471;SDS011;20710;49.976;19.836;2023-07-22T07:38:01;9.10;;;6.60;;
34471;SDS011;20710;49.976;19.836;2023-07-22T07:44:15;8.70;;;5.40;;
34471;SDS011;20710;49.976;19.836;2023-07-22T07:50:42;7.00;;;5.20;;
34471;SDS011;20710;49.976;19.836;2023-07-22T08:03:50;7.20;;;4.90;;
34471;SDS011;20710;49.976;19.836;2023-07-22T08:09:51;6.40;;;4.40;;
34471;SDS011;20710;49.976;19.836;2023-07-22T08:17:02;4.40;;;3.30;;
34471;SDS011;20710;49.976;19.836;2023-07-22T08:23:08;4.40;;;3.10;;
34471;SDS011;20710;49.976;19.836;2023-07-22T08:30:07;4.20;;;2.80;;
34471;SDS011;20710;49.976;19.836;2023-07-22T08:36:09;4.00;;;3.10;;
34471;SDS011;20710;49.976;19.836;2023-07-22T08:42:14;4.00;;;3.00;;
34471;SDS011;20710;49.976;19.836;2023-07-22T08:49:15;4.70;;;2.90;;
34471;SDS011;20710;49.976;19.836;2023-07-22T08:55:17;4.30;;;3.10;;
34471;SDS011;20710;49.976;19.836;2023-07-22T09:01:20;3.00;;;2.50;;
34471;SDS011;20710;49.976;19.836;2023-07-22T09:07:21;3.30;;;2.50;;
34471;SDS011;20710;49.976;19.836;2023-07-22T09:13:33;4.10;;;2.60;;
34471;SDS011;20710;49.976;19.836;2023-07-22T09:20:49;4.00;;;2.40;;
34471;SDS011;20710;49.976;19.836;2023-07-22T09:27:35;3.70;;;2.40;;
34471;SDS011;20710;49.976;19.836;2023-07-22T09:42:28;3.20;;;2.30;;
34471;SDS011;20710;49.976;19.836;2023-07-22T09:48:44;3.00;;;1.90;;
34471;SDS011;20710;49.976;19.836;2023-07-22T09:55:17;3.40;;;2.40;;
34471;SDS011;20710;49.976;19.836;2023-07-22T10:01:43;4.10;;;2.30;;
34471;SDS011;20710;49.976;19.836;2023-07-22T10:07:48;3.00;;;1.60;;
34471;SDS011;20710;49.976;19.836;2023-07-22T10:13:52;3.30;;;1.60;;
34471;SDS011;20710;49.976;19.836;2023-07-22T10:19:54;3.10;;;1.60;;
34471;SDS011;20710;49.976;19.836;2023-07-22T10:25:57;3.90;;;1.90;;
34471;SDS011;20710;49.976;19.836;2023-07-22T10:32:33;1.90;;;1.70;;
34471;SDS011;20710;49.976;19.836;2023-07-22T10:38:37;2.10;;;1.70;;
34471;SDS011;20710;49.976;19.836;2023-07-22T10:45:29;6.50;;;2.10;;
34471;SDS011;20710;49.976;19.836;2023-07-22T10:51:35;4.60;;;1.30;;
34471;SDS011;20710;49.976;19.836;2023-07-22T10:57:47;3.50;;;1.60;;
34471;SDS011;20710;49.976;19.836;2023-07-22T11:17:28;3.80;;;1.30;;
34471;SDS011;20710;49.976;19.836;2023-07-22T11:23:32;3.10;;;1.30;;
34471;SDS011;20710;49.976;19.836;2023-07-22T11:29:36;2.40;;;1.40;;
34471;SDS011;20710;49.976;19.836;2023-07-22T11:35:42;2.60;;;1.20;;
34471;SDS011;20710;49.976;19.836;2023-07-22T11:48:53;3.10;;;1.50;;
34471;SDS011;20710;49.976;19.836;2023-07-22T11:55:27;3.20;;;1.20;;
34471;SDS011;20710;49.976;19.836;2023-07-22T12:01:31;2.40;;;1.40;;
34471;SDS011;20710;49.976;19.836;2023-07-22T12:07:35;4.20;;;1.50;;
34471;SDS011;20710;49.976;19.836;2023-07-22T12:13:38;5.20;;;1.80;;
34471;SDS011;20710;49.976;19.836;2023-07-22T12:19:50;2.10;;;1.50;;
34471;SDS011;20710;49.976;19.836;2023-07-22T12:32:46;1.60;;;1.40;;
34471;SDS011;20710;49.976;19.836;2023-07-22T12:39:37;3.20;;;1.90;;
34471;SDS011;20710;49.976;19.836;2023-07-22T12:45:38;1.90;;;1.40;;
34471;SDS011;20710;49.976;19.836;2023-07-22T12:51:40;2.60;;;1.50;;
34471;SDS011;20710;49.976;19.836;2023-07-22T12:57:42;2.70;;;1.40;;
34471;SDS011;20710;49.976;19.836;2023-07-22T13:03:43;2.90;;;1.50;;
34471;SDS011;20710;49.976;19.836;2023-07-22T13:10:32;3.50;;;1.50;;
34471;SDS011;20710;49.976;19.836;2023-07-22T13:16:32;1.70;;;1.10;;
34471;SDS011;20710;49.976;19.836;2023-07-22T13:22:34;4.10;;;1.80;;
34471;SDS011;20710;49.976;19.836;2023-07-22T13:28:36;6.00;;;1.60;;
34471;SDS011;20710;49.976;19.836;2023-07-22T13:34:38;2.40;;;1.90;;
34471;SDS011;20710;49.976;19.836;2023-07-22T13:40:40;2.40;;;1.80;;
34471;SDS011;20710;49.976;19.836;2023-07-22T13:46:42;2.10;;;1.90;;
34471;SDS011;20710;49.976;19.836;2023-07-22T13:52:43;2.60;;;1.80;;
34471;SDS011;20710;49.976;19.836;2023-07-22T13:58:45;3.10;;;2.00;;
34471;SDS011;20710;49.976;19.836;2023-07-22T14:04:47;3.20;;;1.90;;
34471;SDS011;20710;49.976;19.836;2023-07-22T14:10:49;2.90;;;1.80;;
34471;SDS011;20710;49.976;19.836;2023-07-22T14:23:28;2.70;;;2.00;;
34471;SDS011;20710;49.976;19.836;2023-07-22T14:30:08;2.40;;;1.80;;
34471;SDS011;20710;49.976;19.836;2023-07-22T14:36:10;3.40;;;1.80;;
34471;SDS011;20710;49.976;19.836;2023-07-22T14:42:12;3.30;;;1.50;;
34471;SDS011;20710;49.976;19.836;2023-07-22T14:48:14;2.30;;;1.60;;
34471;SDS011;20710;49.976;19.836;2023-07-22T14:54:15;4.30;;;1.80;;
34471;SDS011;20710;49.976;19.836;2023-07-22T15:00:17;3.90;;;2.10;;
34471;SDS011;20710;49.976;19.836;2023-07-22T15:06:19;3.40;;;1.60;;
34471;SDS011;20710;49.976;19.836;2023-07-22T15:12:21;4.70;;;2.00;;
34471;SDS011;20710;49.976;19.836;2023-07-22T15:18:23;5.40;;;2.10;;
34471;SDS011;20710;49.976;19.836;2023-07-22T15:24:25;3.70;;;2.10;;
34471;SDS011;20710;49.976;19.836;2023-07-22T15:30:26;3.10;;;1.80;;
34471;SDS011;20710;49.976;19.836;2023-07-22T15:36:28;3.60;;;2.30;;
34471;SDS011;20710;49.976;19.836;2023-07-22T15:42:29;3.00;;;1.90;;
34471;SDS011;20710;49.976;19.836;2023-07-22T15:48:31;3.20;;;2.00;;
34471;SDS011;20710;49.976;19.836;2023-07-22T15:54:33;2.90;;;2.30;;
34471;SDS011;20710;49.976;19.836;2023-07-22T16:00:35;4.20;;;2.40;;
34471;SDS011;20710;49.976;19.836;2023-07-22T16:06:37;3.20;;;2.40;;
34471;SDS011;20710;49.976;19.836;2023-07-22T16:12:38;3.90;;;2.50;;
34471;SDS011;20710;49.976;19.836;2023-07-22T16:18:40;3.70;;;2.40;;
34471;SDS011;20710;49.976;19.836;2023-07-22T16:24:42;5.60;;;2.40;;
34471;SDS011;20710;49.976;19.836;2023-07-22T16:30:44;3.90;;;2.50;;
34471;SDS011;20710;49.976;19.836;2023-07-22T16:36:46;3.50;;;2.20;;
34471;SDS011;20710;49.976;19.836;2023-07-22T16:42:47;2.90;;;2.00;;
34471;SDS011;20710;49.976;19.836;2023-07-22T16:48:49;3.50;;;2.80;;
34471;SDS011;20710;49.976;19.836;2023-07-22T16:54:51;4.00;;;2.40;;
34471;SDS011;20710;49.976;19.836;2023-07-22T17:00:57;3.20;;;2.00;;
34471;SDS011;20710;49.976;19.836;2023-07-22T17:06:58;3.30;;;2.30;;
34471;SDS011;20710;49.976;19.836;2023-07-22T17:13:00;3.30;;;2.30;;
34471;SDS011;20710;49.976;19.836;2023-07-22T17:19:02;3.30;;;2.50;;
34471;SDS011;20710;49.976;19.836;2023-07-22T17:25:03;2.80;;;2.30;;
34471;SDS011;20710;49.976;19.836;2023-07-22T17:31:05;3.80;;;2.50;;
34471;SDS011;20710;49.976;19.836;2023-07-22T17:37:07;2.30;;;2.10;;
34471;SDS011;20710;49.976;19.836;2023-07-22T17:43:09;2.80;;;2.30;;
34471;SDS011;20710;49.976;19.836;2023-07-22T17:49:10;5.60;;;2.80;;
34471;SDS011;20710;49.976;19.836;2023-07-22T17:55:12;3.90;;;2.90;;
34471;SDS011;20710;49.976;19.836;2023-07-22T18:01:14;5.00;;;2.90;;
34471;SDS011;20710;49.976;19.836;2023-07-22T18:07:16;4.10;;;2.70;;
34471;SDS011;20710;49.976;19.836;2023-07-22T18:13:17;3.60;;;2.80;;
34471;SDS011;20710;49.976;19.836;2023-07-22T18:19:19;5.70;;;3.20;;
34471;SDS011;20710;49.976;19.836;2023-07-22T18:25:22;4.80;;;3.50;;
34471;SDS011;20710;49.976;19.836;2023-07-22T18:31:24;6.70;;;4.10;;
34471;SDS011;20710;49.976;19.836;2023-07-22T18:37:26;5.20;;;3.80;;
34471;SDS011;20710;49.976;19.836;2023-07-22T18:43:28;6.50;;;4.90;;
34471;SDS011;20710;49.976;19.836;2023-07-22T18:49:29;6.70;;;4.50;;
34471;SDS011;20710;49.976;19.836;2023-07-22T18:55:36;7.40;;;4.60;;
34471;SDS011;20710;49.976;19.836;2023-07-22T19:01:41;7.20;;;4.80;;
34471;SDS011;20710;49.976;19.836;2023-07-22T19:07:42;10.60;;;5.70;;
34471;SDS011;20710;49.976;19.836;2023-07-22T19:13:55;9.90;;;5.10;;
34471;SDS011;20710;49.976;19.836;2023-07-22T19:19:59;6.50;;;5.10;;
34471;SDS011;20710;49.976;19.836;2023-07-22T19:26:00;7.00;;;4.50;;
34471;SDS011;20710;49.976;19.836;2023-07-22T19:32:03;6.20;;;4.20;;
34471;SDS011;20710;49.976;19.836;2023-07-22T19:38:05;7.60;;;5.20;;
34471;SDS011;20710;49.976;19.836;2023-07-22T19:44:07;5.90;;;4.70;;
34471;SDS011;20710;49.976;19.836;2023-07-22T19:50:08;7.30;;;5.60;;
34471;SDS011;20710;49.976;19.836;2023-07-22T19:56:10;6.40;;;5.10;;
34471;SDS011;20710;49.976;19.836;2023-07-22T20:02:13;10.70;;;5.80;;
34471;SDS011;20710;49.976;19.836;2023-07-22T20:08:15;10.10;;;5.80;;
34471;SDS011;20710;49.976;19.836;2023-07-22T20:14:20;9.10;;;6.10;;
34471;SDS011;20710;49.976;19.836;2023-07-22T20:20:22;14.20;;;5.00;;
34471;SDS011;20710;49.976;19.836;2023-07-22T20:26:23;8.00;;;6.30;;
34471;SDS011;20710;49.976;19.836;2023-07-22T20:32:25;9.50;;;6.30;;
34471;SDS011;20710;49.976;19.836;2023-07-22T20:38:27;9.50;;;5.70;;
34471;SDS011;20710;49.976;19.836;2023-07-22T20:44:28;11.70;;;7.20;;
34471;SDS011;20710;49.976;19.836;2023-07-22T20:50:31;11.70;;;6.70;;
34471;SDS011;20710;49.976;19.836;2023-07-22T20:56:34;13.50;;;8.80;;
34471;SDS011;20710;49.976;19.836;2023-07-22T21:02:36;11.90;;;9.30;;
34471;SDS011;20710;49.976;19.836;2023-07-22T21:08:37;14.70;;;9.20;;
34471;SDS011;20710;49.976;19.836;2023-07-22T21:14:39;12.60;;;9.20;;
34471;SDS011;20710;49.976;19.836;2023-07-22T21:20:40;15.60;;;9.70;;
34471;SDS011;20710;49.976;19.836;2023-07-22T21:26:42;12.10;;;8.30;;
34471;SDS011;20710;49.976;19.836;2023-07-22T21:32:44;14.40;;;8.10;;
34471;SDS011;20710;49.976;19.836;2023-07-22T21:38:46;12.10;;;8.80;;
34471;SDS011;20710;49.976;19.836;2023-07-22T21:44:47;14.30;;;9.80;;
34471;SDS011;20710;49.976;19.836;2023-07-22T21:50:49;12.00;;;9.40;;
34471;SDS011;20710;49.976;19.836;2023-07-22T21:56:50;13.80;;;9.00;;
34471;SDS011;20710;49.976;19.836;2023-07-22T22:02:52;12.90;;;9.00;;
34471;SDS011;20710;49.976;19.836;2023-07-22T22:08:54;17.00;;;8.80;;
34471;SDS011;20710;49.976;19.836;2023-07-22T22:14:56;13.30;;;8.60;;
34471;SDS011;20710;49.976;19.836;2023-07-22T22:20:57;12.70;;;9.30;;
34471;SDS011;20710;49.976;19.836;2023-07-22T22:26:59;13.90;;;9.90;;
34471;SDS011;20710;49.976;19.836;2023-07-22T22:33:01;16.70;;;10.30;;
34471;SDS011;20710;49.976;19.836;2023-07-22T22:39:02;16.10;;;10.30;;
34471;SDS011;20710;49.976;19.836;2023-07-22T22:45:04;13.80;;;11.30;;
34471;SDS011;20710;49.976;19.836;2023-07-22T22:51:06;18.00;;;11.30;;
34471;SDS011;20710;49.976;19.836;2023-07-22T22:57:08;28.10;;;17.30;;
34471;SDS011;20710;49.976;19.836;2023-07-22T23:03:10;21.20;;;16.10;;
34471;SDS011;20710;49.976;19.836;2023-07-22T23:09:11;23.60;;;16.60;;
34471;SDS011;20710;49.976;19.836;2023-07-22T23:15:14;21.10;;;15.10;;
34471;SDS011;20710;49.976;19.836;2023-07-22T23:21:17;26.70;;;16.10;;
34471;SDS011;20710;49.976;19.836;2023-07-22T23:27:18;20.50;;;13.90;;
34471;SDS011;20710;49.976;19.836;2023-07-22T23:33:20;20.80;;;13.90;;
34471;SDS011;20710;49.976;19.836;2023-07-22T23:39:27;21.30;;;14.10;;
34471;SDS011;20710;49.976;19.836;2023-07-22T23:45:28;20.70;;;14.60;;
34471;SDS011;20710;49.976;19.836;2023-07-22T23:51:30;23.50;;;13.60;;
34471;SDS011;20710;49.976;19.836;2023-07-22T23:57:31;21.30;;;12.90;;
